sensor_id;sensor_type;location;lat;lon;timestamp;P1;durP1;ratioP1;P2;durP2;ratioP2
14698;SDS011;7439;50.804;4.602;2023-04-24T00:01:54;20.67;;;15.73;;
14698;SDS011;7439;50.804;4.602;2023-04-24T00:04:23;20.87;;;17.20;;
14698;SDS011;7439;50.804;4.602;2023-04-24T00:06:52;25.53;;;16.63;;
14698;SDS011;7439;50.804;4.602;2023-04-24T00:09:22;22.17;;;16.70;;
14698;SDS011;7439;50.804;4.602;2023-04-24T00:11:50;22.90;;;17.63;;
14698;SDS011;7439;50.804;4.602;2023-04-24T00:14:17;22.43;;;17.60;;
14698;SDS011;7439;50.804;4.602;2023-04-24T00:16:46;18.60;;;16.57;;
14698;SDS011;7439;50.804;4.602;2023-04-24T00:19:13;20.67;;;15.40;;
14698;SDS011;7439;50.804;4.602;2023-04-24T00:21:41;20.80;;;16.37;;
14698;SDS011;7439;50.804;4.602;2023-04-24T00:24:09;20.30;;;16.33;;
14698;SDS011;7439;50.804;4.602;2023-04-24T00:26:36;24.87;;;16.50;;
14698;SDS011;7439;50.804;4.602;2023-04-24T00:29:03;22.37;;;16.57;;
14698;SDS011;7439;50.804;4.602;2023-04-24T00:31:31;20.13;;;16.43;;
14698;SDS011;7439;50.804;4.602;2023-04-24T00:34:01;24.77;;;16.23;;
14698;SDS011;7439;50.804;4.602;2023-04-24T00:36:28;20.43;;;15.87;;
14698;SDS011;7439;50.804;4.602;2023-04-24T00:38:56;19.17;;;17.20;;
14698;SDS011;7439;50.804;4.602;2023-04-24T00:41:24;23.80;;;16.40;;
14698;SDS011;7439;50.804;4.602;2023-04-24T00:43:52;25.23;;;17.10;;
14698;SDS011;7439;50.804;4.602;2023-04-24T00:46:19;22.80;;;16.50;;
14698;SDS011;7439;50.804;4.602;2023-04-24T00:48:47;21.63;;;16.87;;
14698;SDS011;7439;50.804;4.602;2023-04-24T00:51:16;19.70;;;16.50;;
14698;SDS011;7439;50.804;4.602;2023-04-24T00:53:44;23.30;;;17.57;;
14698;SDS011;7439;50.804;4.602;2023-04-24T00:56:11;19.40;;;16.17;;
14698;SDS011;7439;50.804;4.602;2023-04-24T00:58:38;20.10;;;15.67;;
14698;SDS011;7439;50.804;4.602;2023-04-24T01:01:07;19.50;;;17.30;;
14698;SDS011;7439;50.804;4.602;2023-04-24T01:03:34;24.53;;;16.80;;
14698;SDS011;7439;50.804;4.602;2023-04-24T01:06:03;20.67;;;15.97;;
14698;SDS011;7439;50.804;4.602;2023-04-24T01:08:32;29.67;;;16.90;;
14698;SDS011;7439;50.804;4.602;2023-04-24T01:11:00;22.77;;;16.33;;
14698;SDS011;7439;50.804;4.602;2023-04-24T01:13:30;20.73;;;14.13;;
14698;SDS011;7439;50.804;4.602;2023-04-24T01:15:58;24.33;;;17.57;;
14698;SDS011;7439;50.804;4.602;2023-04-24T01:18:25;20.33;;;16.77;;
14698;SDS011;7439;50.804;4.602;2023-04-24T01:20:53;20.90;;;16.07;;
14698;SDS011;7439;50.804;4.602;2023-04-24T01:23:22;28.50;;;25.47;;
14698;SDS011;7439;50.804;4.602;2023-04-24T01:25:50;35.10;;;32.27;;
14698;SDS011;7439;50.804;4.602;2023-04-24T01:28:26;41.87;;;38.87;;
14698;SDS011;7439;50.804;4.602;2023-04-24T01:30:54;34.10;;;31.33;;
14698;SDS011;7439;50.804;4.602;2023-04-24T01:33:23;36.30;;;32.77;;
14698;SDS011;7439;50.804;4.602;2023-04-24T01:35:50;37.10;;;33.00;;
14698;SDS011;7439;50.804;4.602;2023-04-24T01:38:18;39.90;;;35.93;;
14698;SDS011;7439;50.804;4.602;2023-04-24T01:40:47;43.20;;;39.77;;
14698;SDS011;7439;50.804;4.602;2023-04-24T01:43:15;43.40;;;39.70;;
14698;SDS011;7439;50.804;4.602;2023-04-24T01:45:42;43.43;;;40.37;;
14698;SDS011;7439;50.804;4.602;2023-04-24T01:48:10;47.77;;;43.80;;
14698;SDS011;7439;50.804;4.602;2023-04-24T01:50:38;47.63;;;43.90;;
14698;SDS011;7439;50.804;4.602;2023-04-24T01:53:05;49.87;;;46.03;;
14698;SDS011;7439;50.804;4.602;2023-04-24T01:55:32;48.20;;;44.73;;
14698;SDS011;7439;50.804;4.602;2023-04-24T01:58:01;50.20;;;46.23;;
14698;SDS011;7439;50.804;4.602;2023-04-24T02:00:29;42.87;;;39.50;;
14698;SDS011;7439;50.804;4.602;2023-04-24T02:02:56;44.60;;;41.10;;
14698;SDS011;7439;50.804;4.602;2023-04-24T02:05:23;42.83;;;39.63;;
14698;SDS011;7439;50.804;4.602;2023-04-24T02:07:51;44.23;;;40.50;;
14698;SDS011;7439;50.804;4.602;2023-04-24T02:10:18;46.23;;;41.60;;
14698;SDS011;7439;50.804;4.602;2023-04-24T02:12:45;44.53;;;40.87;;
14698;SDS011;7439;50.804;4.602;2023-04-24T02:15:14;41.13;;;37.83;;
14698;SDS011;7439;50.804;4.602;2023-04-24T02:17:43;42.97;;;39.47;;
14698;SDS011;7439;50.804;4.602;2023-04-24T02:20:10;44.23;;;40.10;;
14698;SDS011;7439;50.804;4.602;2023-04-24T02:22:37;42.70;;;38.70;;
14698;SDS011;7439;50.804;4.602;2023-04-24T02:25:05;44.40;;;40.60;;
14698;SDS011;7439;50.804;4.602;2023-04-24T02:27:33;43.60;;;39.83;;
14698;SDS011;7439;50.804;4.602;2023-04-24T02:30:00;43.73;;;40.00;;
14698;SDS011;7439;50.804;4.602;2023-04-24T02:32:29;46.13;;;42.17;;
14698;SDS011;7439;50.804;4.602;2023-04-24T02:34:57;50.23;;;45.57;;
14698;SDS011;7439;50.804;4.602;2023-04-24T02:37:24;47.20;;;43.20;;
14698;SDS011;7439;50.804;4.602;2023-04-24T02:39:52;47.27;;;43.37;;
14698;SDS011;7439;50.804;4.602;2023-04-24T02:42:19;43.80;;;40.20;;
14698;SDS011;7439;50.804;4.602;2023-04-24T02:44:46;47.70;;;43.37;;
14698;SDS011;7439;50.804;4.602;2023-04-24T02:47:14;48.83;;;44.70;;
14698;SDS011;7439;50.804;4.602;2023-04-24T02:49:42;47.33;;;43.50;;
14698;SDS011;7439;50.804;4.602;2023-04-24T02:52:10;48.97;;;45.47;;
14698;SDS011;7439;50.804;4.602;2023-04-24T02:54:38;48.00;;;44.07;;
14698;SDS011;7439;50.804;4.602;2023-04-24T02:57:05;48.53;;;45.03;;
14698;SDS011;7439;50.804;4.602;2023-04-24T02:59:33;45.03;;;41.60;;
14698;SDS011;7439;50.804;4.602;2023-04-24T03:02:00;45.73;;;42.53;;
14698;SDS011;7439;50.804;4.602;2023-04-24T03:04:31;45.23;;;42.03;;
14698;SDS011;7439;50.804;4.602;2023-04-24T03:07:00;42.90;;;39.90;;
14698;SDS011;7439;50.804;4.602;2023-04-24T03:09:27;46.17;;;42.97;;
14698;SDS011;7439;50.804;4.602;2023-04-24T03:11:54;43.70;;;40.33;;
14698;SDS011;7439;50.804;4.602;2023-04-24T03:14:22;45.97;;;42.67;;
14698;SDS011;7439;50.804;4.602;2023-04-24T03:16:49;44.40;;;41.13;;
14698;SDS011;7439;50.804;4.602;2023-04-24T03:19:17;43.83;;;40.87;;
14698;SDS011;7439;50.804;4.602;2023-04-24T03:21:44;43.43;;;39.97;;
14698;SDS011;7439;50.804;4.602;2023-04-24T03:24:12;44.07;;;40.70;;
14698;SDS011;7439;50.804;4.602;2023-04-24T03:26:40;45.17;;;41.57;;
14698;SDS011;7439;50.804;4.602;2023-04-24T03:29:07;41.97;;;38.97;;
14698;SDS011;7439;50.804;4.602;2023-04-24T03:31:34;40.07;;;37.10;;
14698;SDS011;7439;50.804;4.602;2023-04-24T03:34:02;43.93;;;40.63;;
14698;SDS011;7439;50.804;4.602;2023-04-24T03:36:30;43.37;;;40.23;;
14698;SDS011;7439;50.804;4.602;2023-04-24T03:38:57;45.80;;;41.93;;
14698;SDS011;7439;50.804;4.602;2023-04-24T03:41:26;41.60;;;38.47;;
14698;SDS011;7439;50.804;4.602;2023-04-24T03:43:53;40.97;;;37.87;;
14698;SDS011;7439;50.804;4.602;2023-04-24T03:46:21;41.67;;;38.53;;
14698;SDS011;7439;50.804;4.602;2023-04-24T03:48:48;42.07;;;38.87;;
14698;SDS011;7439;50.804;4.602;2023-04-24T03:51:16;43.07;;;39.90;;
14698;SDS011;7439;50.804;4.602;2023-04-24T03:53:43;39.70;;;36.90;;
14698;SDS011;7439;50.804;4.602;2023-04-24T03:56:10;40.97;;;38.00;;
14698;SDS011;7439;50.804;4.602;2023-04-24T03:58:39;39.67;;;36.77;;
14698;SDS011;7439;50.804;4.602;2023-04-24T04:01:07;42.67;;;39.33;;
14698;SDS011;7439;50.804;4.602;2023-04-24T04:03:35;40.53;;;37.83;;
14698;SDS011;7439;50.804;4.602;2023-04-24T04:06:03;38.77;;;36.33;;
14698;SDS011;7439;50.804;4.602;2023-04-24T04:08:30;41.47;;;38.17;;
14698;SDS011;7439;50.804;4.602;2023-04-24T04:10:57;42.97;;;40.07;;
14698;SDS011;7439;50.804;4.602;2023-04-24T04:13:25;42.13;;;39.33;;
14698;SDS011;7439;50.804;4.602;2023-04-24T04:15:54;36.90;;;34.70;;
14698;SDS011;7439;50.804;4.602;2023-04-24T04:18:21;40.17;;;37.63;;
14698;SDS011;7439;50.804;4.602;2023-04-24T04:20:49;37.73;;;35.37;;
14698;SDS011;7439;50.804;4.602;2023-04-24T04:23:16;37.53;;;34.67;;
14698;SDS011;7439;50.804;4.602;2023-04-24T04:25:44;39.77;;;37.50;;
14698;SDS011;7439;50.804;4.602;2023-04-24T04:28:12;41.67;;;39.17;;
14698;SDS011;7439;50.804;4.602;2023-04-24T04:30:40;40.37;;;37.67;;
14698;SDS011;7439;50.804;4.602;2023-04-24T04:33:09;39.63;;;37.13;;
14698;SDS011;7439;50.804;4.602;2023-04-24T04:35:37;39.90;;;37.60;;
14698;SDS011;7439;50.804;4.602;2023-04-24T04:38:05;40.30;;;37.80;;
14698;SDS011;7439;50.804;4.602;2023-04-24T04:40:33;41.13;;;38.83;;
14698;SDS011;7439;50.804;4.602;2023-04-24T04:43:00;41.57;;;39.17;;
14698;SDS011;7439;50.804;4.602;2023-04-24T04:45:28;40.50;;;37.60;;
14698;SDS011;7439;50.804;4.602;2023-04-24T04:47:59;41.20;;;38.90;;
14698;SDS011;7439;50.804;4.602;2023-04-24T04:50:28;41.07;;;38.70;;
14698;SDS011;7439;50.804;4.602;2023-04-24T04:52:56;41.07;;;38.77;;
14698;SDS011;7439;50.804;4.602;2023-04-24T04:55:23;41.87;;;39.60;;
14698;SDS011;7439;50.804;4.602;2023-04-24T04:57:51;45.53;;;42.57;;
14698;SDS011;7439;50.804;4.602;2023-04-24T05:00:18;46.13;;;43.40;;
14698;SDS011;7439;50.804;4.602;2023-04-24T05:02:46;42.60;;;40.33;;
14698;SDS011;7439;50.804;4.602;2023-04-24T05:05:13;47.27;;;44.67;;
14698;SDS011;7439;50.804;4.602;2023-04-24T05:07:43;47.70;;;44.97;;
14698;SDS011;7439;50.804;4.602;2023-04-24T05:10:11;50.77;;;47.83;;
14698;SDS011;7439;50.804;4.602;2023-04-24T05:12:38;50.73;;;47.97;;
14698;SDS011;7439;50.804;4.602;2023-04-24T05:15:06;53.20;;;49.90;;
14698;SDS011;7439;50.804;4.602;2023-04-24T05:17:33;54.63;;;51.47;;
14698;SDS011;7439;50.804;4.602;2023-04-24T05:20:00;59.90;;;56.37;;
14698;SDS011;7439;50.804;4.602;2023-04-24T05:22:30;57.37;;;53.57;;
14698;SDS011;7439;50.804;4.602;2023-04-24T05:24:59;62.07;;;57.77;;
14698;SDS011;7439;50.804;4.602;2023-04-24T05:27:26;61.40;;;57.73;;
14698;SDS011;7439;50.804;4.602;2023-04-24T05:29:54;62.13;;;58.37;;
14698;SDS011;7439;50.804;4.602;2023-04-24T05:32:21;64.40;;;60.23;;
14698;SDS011;7439;50.804;4.602;2023-04-24T05:34:49;67.60;;;63.47;;
14698;SDS011;7439;50.804;4.602;2023-04-24T05:37:16;64.73;;;60.30;;
14698;SDS011;7439;50.804;4.602;2023-04-24T05:39:43;65.33;;;61.07;;
14698;SDS011;7439;50.804;4.602;2023-04-24T05:42:12;61.83;;;58.10;;
14698;SDS011;7439;50.804;4.602;2023-04-24T05:44:40;64.20;;;60.40;;
14698;SDS011;7439;50.804;4.602;2023-04-24T05:47:07;64.27;;;59.93;;
14698;SDS011;7439;50.804;4.602;2023-04-24T05:49:35;68.67;;;64.20;;
14698;SDS011;7439;50.804;4.602;2023-04-24T05:52:02;68.53;;;64.53;;
14698;SDS011;7439;50.804;4.602;2023-04-24T05:54:31;72.07;;;67.93;;
14698;SDS011;7439;50.804;4.602;2023-04-24T05:56:59;72.73;;;68.20;;
14698;SDS011;7439;50.804;4.602;2023-04-24T05:59:30;71.80;;;67.17;;
14698;SDS011;7439;50.804;4.602;2023-04-24T06:01:58;75.93;;;71.40;;
14698;SDS011;7439;50.804;4.602;2023-04-24T06:04:25;73.33;;;69.07;;
14698;SDS011;7439;50.804;4.602;2023-04-24T06:06:53;74.63;;;70.30;;
14698;SDS011;7439;50.804;4.602;2023-04-24T06:09:21;73.87;;;69.43;;
14698;SDS011;7439;50.804;4.602;2023-04-24T06:11:48;73.27;;;68.53;;
14698;SDS011;7439;50.804;4.602;2023-04-24T06:14:17;72.33;;;67.63;;
14698;SDS011;7439;50.804;4.602;2023-04-24T06:16:46;70.07;;;65.67;;
14698;SDS011;7439;50.804;4.602;2023-04-24T06:19:14;72.37;;;68.03;;
14698;SDS011;7439;50.804;4.602;2023-04-24T06:21:41;68.93;;;64.83;;
14698;SDS011;7439;50.804;4.602;2023-04-24T06:24:08;71.53;;;66.97;;
14698;SDS011;7439;50.804;4.602;2023-04-24T06:26:36;71.63;;;67.23;;
14698;SDS011;7439;50.804;4.602;2023-04-24T06:29:04;70.53;;;65.77;;
14698;SDS011;7439;50.804;4.602;2023-04-24T06:31:32;68.27;;;63.93;;
14698;SDS011;7439;50.804;4.602;2023-04-24T06:34:03;66.07;;;61.97;;
14698;SDS011;7439;50.804;4.602;2023-04-24T06:36:30;70.10;;;66.13;;
14698;SDS011;7439;50.804;4.602;2023-04-24T06:38:59;75.03;;;69.70;;
14698;SDS011;7439;50.804;4.602;2023-04-24T06:41:27;73.23;;;68.33;;
14698;SDS011;7439;50.804;4.602;2023-04-24T06:43:55;79.03;;;74.03;;
14698;SDS011;7439;50.804;4.602;2023-04-24T06:46:22;78.60;;;74.00;;
14698;SDS011;7439;50.804;4.602;2023-04-24T06:48:51;82.47;;;77.13;;
14698;SDS011;7439;50.804;4.602;2023-04-24T06:51:22;81.17;;;76.07;;
14698;SDS011;7439;50.804;4.602;2023-04-24T06:53:50;79.73;;;74.53;;
14698;SDS011;7439;50.804;4.602;2023-04-24T06:56:18;83.73;;;78.40;;
14698;SDS011;7439;50.804;4.602;2023-04-24T06:58:45;78.90;;;73.87;;
14698;SDS011;7439;50.804;4.602;2023-04-24T07:01:13;81.00;;;75.53;;
14698;SDS011;7439;50.804;4.602;2023-04-24T07:03:41;81.13;;;75.23;;
14698;SDS011;7439;50.804;4.602;2023-04-24T07:06:08;86.77;;;80.73;;
14698;SDS011;7439;50.804;4.602;2023-04-24T07:08:38;82.07;;;77.13;;
14698;SDS011;7439;50.804;4.602;2023-04-24T07:11:07;89.43;;;83.00;;
14698;SDS011;7439;50.804;4.602;2023-04-24T07:13:34;88.40;;;82.83;;
14698;SDS011;7439;50.804;4.602;2023-04-24T07:16:01;96.77;;;90.10;;
14698;SDS011;7439;50.804;4.602;2023-04-24T07:18:29;97.20;;;91.23;;
14698;SDS011;7439;50.804;4.602;2023-04-24T07:20:56;101.57;;;95.03;;
14698;SDS011;7439;50.804;4.602;2023-04-24T07:23:24;107.50;;;101.33;;
14698;SDS011;7439;50.804;4.602;2023-04-24T07:25:53;104.50;;;98.60;;
14698;SDS011;7439;50.804;4.602;2023-04-24T07:28:20;112.47;;;105.33;;
14698;SDS011;7439;50.804;4.602;2023-04-24T07:30:48;104.93;;;98.90;;
14698;SDS011;7439;50.804;4.602;2023-04-24T07:33:15;105.73;;;99.73;;
14698;SDS011;7439;50.804;4.602;2023-04-24T07:35:43;120.73;;;113.73;;
14698;SDS011;7439;50.804;4.602;2023-04-24T07:38:10;107.47;;;101.60;;
14698;SDS011;7439;50.804;4.602;2023-04-24T07:40:38;111.77;;;105.47;;
14698;SDS011;7439;50.804;4.602;2023-04-24T07:43:07;123.20;;;117.13;;
14698;SDS011;7439;50.804;4.602;2023-04-24T07:45:35;110.13;;;104.13;;
14698;SDS011;7439;50.804;4.602;2023-04-24T07:48:02;120.23;;;113.93;;
14698;SDS011;7439;50.804;4.602;2023-04-24T07:50:30;127.40;;;120.83;;
14698;SDS011;7439;50.804;4.602;2023-04-24T07:52:57;153.37;;;146.23;;
14698;SDS011;7439;50.804;4.602;2023-04-24T07:55:24;137.20;;;130.20;;
14698;SDS011;7439;50.804;4.602;2023-04-24T07:57:52;143.20;;;136.73;;
14698;SDS011;7439;50.804;4.602;2023-04-24T08:00:20;177.97;;;170.40;;
14698;SDS011;7439;50.804;4.602;2023-04-24T08:02:48;151.57;;;144.10;;
14698;SDS011;7439;50.804;4.602;2023-04-24T08:05:15;192.37;;;184.67;;
14698;SDS011;7439;50.804;4.602;2023-04-24T08:07:43;185.37;;;177.80;;
14698;SDS011;7439;50.804;4.602;2023-04-24T08:10:11;159.57;;;152.23;;
14698;SDS011;7439;50.804;4.602;2023-04-24T08:12:39;155.70;;;148.37;;
14698;SDS011;7439;50.804;4.602;2023-04-24T08:15:07;159.27;;;151.53;;
14698;SDS011;7439;50.804;4.602;2023-04-24T08:17:36;151.07;;;143.63;;
14698;SDS011;7439;50.804;4.602;2023-04-24T08:20:03;144.90;;;137.57;;
14698;SDS011;7439;50.804;4.602;2023-04-24T08:22:35;147.37;;;140.30;;
14698;SDS011;7439;50.804;4.602;2023-04-24T08:25:02;144.50;;;137.53;;
14698;SDS011;7439;50.804;4.602;2023-04-24T08:27:30;141.30;;;134.57;;
14698;SDS011;7439;50.804;4.602;2023-04-24T08:29:57;141.17;;;133.77;;
14698;SDS011;7439;50.804;4.602;2023-04-24T08:32:25;140.60;;;133.90;;
14698;SDS011;7439;50.804;4.602;2023-04-24T08:34:55;124.70;;;118.47;;
14698;SDS011;7439;50.804;4.602;2023-04-24T08:37:23;129.47;;;122.77;;
14698;SDS011;7439;50.804;4.602;2023-04-24T08:39:50;143.83;;;136.97;;
14698;SDS011;7439;50.804;4.602;2023-04-24T08:42:18;153.30;;;146.10;;
14698;SDS011;7439;50.804;4.602;2023-04-24T08:44:46;145.90;;;139.30;;
14698;SDS011;7439;50.804;4.602;2023-04-24T08:47:13;161.97;;;154.90;;
14698;SDS011;7439;50.804;4.602;2023-04-24T08:49:42;160.37;;;153.50;;
14698;SDS011;7439;50.804;4.602;2023-04-24T08:52:11;156.47;;;149.13;;
14698;SDS011;7439;50.804;4.602;2023-04-24T08:54:39;155.07;;;147.27;;
14698;SDS011;7439;50.804;4.602;2023-04-24T08:57:08;167.83;;;160.17;;
14698;SDS011;7439;50.804;4.602;2023-04-24T08:59:36;171.10;;;163.47;;
14698;SDS011;7439;50.804;4.602;2023-04-24T09:02:05;162.50;;;155.40;;
14698;SDS011;7439;50.804;4.602;2023-04-24T09:04:33;157.43;;;150.17;;
14698;SDS011;7439;50.804;4.602;2023-04-24T09:07:01;166.40;;;159.23;;
14698;SDS011;7439;50.804;4.602;2023-04-24T09:09:31;194.70;;;186.80;;
14698;SDS011;7439;50.804;4.602;2023-04-24T09:11:59;176.50;;;169.03;;
14698;SDS011;7439;50.804;4.602;2023-04-24T09:14:27;161.50;;;154.87;;
14698;SDS011;7439;50.804;4.602;2023-04-24T09:16:56;126.37;;;121.20;;
14698;SDS011;7439;50.804;4.602;2023-04-24T09:19:24;101.50;;;97.13;;
14698;SDS011;7439;50.804;4.602;2023-04-24T09:21:51;103.47;;;99.00;;
14698;SDS011;7439;50.804;4.602;2023-04-24T09:24:20;90.13;;;86.03;;
14698;SDS011;7439;50.804;4.602;2023-04-24T09:26:55;69.83;;;66.33;;
14698;SDS011;7439;50.804;4.602;2023-04-24T09:29:24;51.17;;;48.23;;
14698;SDS011;7439;50.804;4.602;2023-04-24T09:31:52;37.20;;;35.00;;
14698;SDS011;7439;50.804;4.602;2023-04-24T09:34:20;40.20;;;37.70;;
14698;SDS011;7439;50.804;4.602;2023-04-24T09:36:49;23.13;;;21.60;;
14698;SDS011;7439;50.804;4.602;2023-04-24T09:39:16;20.50;;;18.90;;
14698;SDS011;7439;50.804;4.602;2023-04-24T09:41:45;20.73;;;19.13;;
14698;SDS011;7439;50.804;4.602;2023-04-24T09:44:15;23.93;;;22.23;;
14698;SDS011;7439;50.804;4.602;2023-04-24T09:46:46;22.10;;;20.70;;
14698;SDS011;7439;50.804;4.602;2023-04-24T09:49:16;17.93;;;16.63;;
14698;SDS011;7439;50.804;4.602;2023-04-24T09:51:43;17.93;;;16.27;;
14698;SDS011;7439;50.804;4.602;2023-04-24T09:54:13;16.03;;;14.20;;
14698;SDS011;7439;50.804;4.602;2023-04-24T09:56:42;14.10;;;12.60;;
14698;SDS011;7439;50.804;4.602;2023-04-24T09:59:11;14.63;;;12.13;;
14698;SDS011;7439;50.804;4.602;2023-04-24T10:01:40;13.33;;;11.90;;
14698;SDS011;7439;50.804;4.602;2023-04-24T10:04:16;15.67;;;11.90;;
14698;SDS011;7439;50.804;4.602;2023-04-24T10:06:44;10.93;;;10.13;;
14698;SDS011;7439;50.804;4.602;2023-04-24T10:09:12;13.47;;;12.17;;
14698;SDS011;7439;50.804;4.602;2023-04-24T10:11:41;13.53;;;12.47;;
14698;SDS011;7439;50.804;4.602;2023-04-24T10:14:09;12.27;;;11.33;;
14698;SDS011;7439;50.804;4.602;2023-04-24T10:16:37;15.70;;;14.20;;
14698;SDS011;7439;50.804;4.602;2023-04-24T10:19:06;14.40;;;13.10;;
14698;SDS011;7439;50.804;4.602;2023-04-24T10:21:34;14.27;;;12.87;;
14698;SDS011;7439;50.804;4.602;2023-04-24T10:24:04;10.13;;;9.23;;
14698;SDS011;7439;50.804;4.602;2023-04-24T10:26:32;11.80;;;8.93;;
14698;SDS011;7439;50.804;4.602;2023-04-24T10:29:00;9.50;;;8.60;;
14698;SDS011;7439;50.804;4.602;2023-04-24T10:31:30;11.43;;;9.17;;
14698;SDS011;7439;50.804;4.602;2023-04-24T10:33:58;10.07;;;9.13;;
14698;SDS011;7439;50.804;4.602;2023-04-24T10:36:27;11.50;;;9.50;;
14698;SDS011;7439;50.804;4.602;2023-04-24T10:38:57;11.23;;;9.83;;
14698;SDS011;7439;50.804;4.602;2023-04-24T10:41:26;11.80;;;9.20;;
14698;SDS011;7439;50.804;4.602;2023-04-24T10:44:07;13.67;;;9.30;;
14698;SDS011;7439;50.804;4.602;2023-04-24T10:46:35;10.20;;;8.17;;
14698;SDS011;7439;50.804;4.602;2023-04-24T10:49:03;11.30;;;9.37;;
14698;SDS011;7439;50.804;4.602;2023-04-24T10:54:25;10.23;;;8.87;;
14698;SDS011;7439;50.804;4.602;2023-04-24T10:56:52;11.73;;;9.40;;
14698;SDS011;7439;50.804;4.602;2023-04-24T10:59:26;10.57;;;9.50;;
14698;SDS011;7439;50.804;4.602;2023-04-24T11:01:54;12.57;;;9.33;;
14698;SDS011;7439;50.804;4.602;2023-04-24T11:04:31;9.50;;;8.30;;
14698;SDS011;7439;50.804;4.602;2023-04-24T11:07:00;9.77;;;8.70;;
14698;SDS011;7439;50.804;4.602;2023-04-24T11:09:29;11.87;;;9.43;;
14698;SDS011;7439;50.804;4.602;2023-04-24T11:12:03;12.47;;;9.40;;
14698;SDS011;7439;50.804;4.602;2023-04-24T11:17:26;11.90;;;11.00;;
14698;SDS011;7439;50.804;4.602;2023-04-24T11:19:55;12.50;;;10.77;;
14698;SDS011;7439;50.804;4.602;2023-04-24T11:22:28;12.57;;;10.70;;
14698;SDS011;7439;50.804;4.602;2023-04-24T11:24:59;14.20;;;10.67;;
14698;SDS011;7439;50.804;4.602;2023-04-24T11:27:29;11.27;;;10.17;;
14698;SDS011;7439;50.804;4.602;2023-04-24T11:30:00;14.30;;;10.53;;
14698;SDS011;7439;50.804;4.602;2023-04-24T11:32:29;14.20;;;10.17;;
14698;SDS011;7439;50.804;4.602;2023-04-24T11:34:57;10.13;;;9.30;;
14698;SDS011;7439;50.804;4.602;2023-04-24T11:37:26;12.30;;;10.83;;
14698;SDS011;7439;50.804;4.602;2023-04-24T11:39:54;14.07;;;10.90;;
14698;SDS011;7439;50.804;4.602;2023-04-24T11:42:23;10.77;;;9.80;;
14698;SDS011;7439;50.804;4.602;2023-04-24T11:44:52;14.57;;;8.77;;
14698;SDS011;7439;50.804;4.602;2023-04-24T11:47:19;11.40;;;10.23;;
14698;SDS011;7439;50.804;4.602;2023-04-24T11:49:49;10.90;;;9.90;;
14698;SDS011;7439;50.804;4.602;2023-04-24T11:52:17;10.23;;;9.23;;
14698;SDS011;7439;50.804;4.602;2023-04-24T11:54:48;11.60;;;10.67;;
14698;SDS011;7439;50.804;4.602;2023-04-24T11:57:16;12.83;;;11.53;;
14698;SDS011;7439;50.804;4.602;2023-04-24T11:59:47;13.77;;;11.03;;
14698;SDS011;7439;50.804;4.602;2023-04-24T12:02:21;12.37;;;9.93;;
14698;SDS011;7439;50.804;4.602;2023-04-24T12:04:49;12.97;;;10.00;;
14698;SDS011;7439;50.804;4.602;2023-04-24T12:07:16;12.13;;;10.07;;
14698;SDS011;7439;50.804;4.602;2023-04-24T12:09:44;24.03;;;11.90;;
14698;SDS011;7439;50.804;4.602;2023-04-24T12:12:12;28.23;;;14.10;;
14698;SDS011;7439;50.804;4.602;2023-04-24T12:14:50;11.57;;;8.37;;
14698;SDS011;7439;50.804;4.602;2023-04-24T12:17:23;8.20;;;7.00;;
14698;SDS011;7439;50.804;4.602;2023-04-24T12:19:51;9.27;;;7.53;;
14698;SDS011;7439;50.804;4.602;2023-04-24T12:22:18;13.43;;;9.07;;
14698;SDS011;7439;50.804;4.602;2023-04-24T12:24:58;10.23;;;7.53;;
14698;SDS011;7439;50.804;4.602;2023-04-24T12:27:28;8.43;;;7.50;;
14698;SDS011;7439;50.804;4.602;2023-04-24T12:29:57;10.77;;;7.73;;
14698;SDS011;7439;50.804;4.602;2023-04-24T12:32:24;8.30;;;6.83;;
14698;SDS011;7439;50.804;4.602;2023-04-24T12:34:52;8.17;;;7.37;;
14698;SDS011;7439;50.804;4.602;2023-04-24T12:37:19;7.53;;;6.60;;
14698;SDS011;7439;50.804;4.602;2023-04-24T12:40:00;10.10;;;7.03;;
14698;SDS011;7439;50.804;4.602;2023-04-24T12:42:28;8.23;;;6.30;;
14698;SDS011;7439;50.804;4.602;2023-04-24T12:44:57;6.67;;;5.70;;
14698;SDS011;7439;50.804;4.602;2023-04-24T12:47:26;6.97;;;5.87;;
14698;SDS011;7439;50.804;4.602;2023-04-24T12:49:53;6.83;;;5.40;;
14698;SDS011;7439;50.804;4.602;2023-04-24T12:52:21;7.33;;;6.63;;
14698;SDS011;7439;50.804;4.602;2023-04-24T12:54:52;7.10;;;6.07;;
14698;SDS011;7439;50.804;4.602;2023-04-24T12:57:20;9.70;;;6.80;;
14698;SDS011;7439;50.804;4.602;2023-04-24T12:59:47;8.27;;;6.47;;
14698;SDS011;7439;50.804;4.602;2023-04-24T13:02:16;6.77;;;6.10;;
14698;SDS011;7439;50.804;4.602;2023-04-24T13:04:44;6.87;;;5.30;;
14698;SDS011;7439;50.804;4.602;2023-04-24T13:07:12;8.27;;;5.10;;
14698;SDS011;7439;50.804;4.602;2023-04-24T13:09:40;5.93;;;5.33;;
14698;SDS011;7439;50.804;4.602;2023-04-24T13:12:08;5.77;;;4.90;;
14698;SDS011;7439;50.804;4.602;2023-04-24T13:14:35;7.37;;;5.07;;
14698;SDS011;7439;50.804;4.602;2023-04-24T13:17:03;5.33;;;4.47;;
14698;SDS011;7439;50.804;4.602;2023-04-24T13:19:36;5.13;;;4.47;;
14698;SDS011;7439;50.804;4.602;2023-04-24T13:22:03;8.27;;;5.20;;
14698;SDS011;7439;50.804;4.602;2023-04-24T13:24:31;5.80;;;4.50;;
14698;SDS011;7439;50.804;4.602;2023-04-24T13:26:58;5.57;;;4.83;;
14698;SDS011;7439;50.804;4.602;2023-04-24T13:29:26;9.27;;;5.30;;
14698;SDS011;7439;50.804;4.602;2023-04-24T13:31:54;5.10;;;4.60;;
14698;SDS011;7439;50.804;4.602;2023-04-24T13:34:22;6.03;;;4.00;;
14698;SDS011;7439;50.804;4.602;2023-04-24T13:36:50;5.73;;;4.73;;
14698;SDS011;7439;50.804;4.602;2023-04-24T13:39:18;7.23;;;4.90;;
14698;SDS011;7439;50.804;4.602;2023-04-24T13:41:45;5.27;;;4.57;;
14698;SDS011;7439;50.804;4.602;2023-04-24T13:44:13;6.27;;;4.87;;
14698;SDS011;7439;50.804;4.602;2023-04-24T13:46:41;6.10;;;5.30;;
14698;SDS011;7439;50.804;4.602;2023-04-24T13:49:09;11.67;;;4.67;;
14698;SDS011;7439;50.804;4.602;2023-04-24T13:51:36;5.63;;;3.83;;
14698;SDS011;7439;50.804;4.602;2023-04-24T13:54:05;6.90;;;3.97;;
14698;SDS011;7439;50.804;4.602;2023-04-24T13:56:33;5.43;;;4.10;;
14698;SDS011;7439;50.804;4.602;2023-04-24T13:59:00;5.10;;;4.00;;
14698;SDS011;7439;50.804;4.602;2023-04-24T14:01:27;6.63;;;4.23;;
14698;SDS011;7439;50.804;4.602;2023-04-24T14:03:55;7.17;;;4.17;;
14698;SDS011;7439;50.804;4.602;2023-04-24T14:06:23;6.10;;;4.27;;
14698;SDS011;7439;50.804;4.602;2023-04-24T14:08:51;6.03;;;3.80;;
14698;SDS011;7439;50.804;4.602;2023-04-24T14:11:19;5.20;;;3.43;;
14698;SDS011;7439;50.804;4.602;2023-04-24T14:13:47;6.17;;;4.43;;
14698;SDS011;7439;50.804;4.602;2023-04-24T14:16:16;8.57;;;4.20;;
14698;SDS011;7439;50.804;4.602;2023-04-24T14:18:43;4.77;;;3.77;;
14698;SDS011;7439;50.804;4.602;2023-04-24T14:21:11;11.40;;;3.67;;
14698;SDS011;7439;50.804;4.602;2023-04-24T14:23:38;5.23;;;3.67;;
14698;SDS011;7439;50.804;4.602;2023-04-24T14:26:06;5.03;;;3.67;;
14698;SDS011;7439;50.804;4.602;2023-04-24T14:28:34;5.07;;;3.87;;
14698;SDS011;7439;50.804;4.602;2023-04-24T14:31:02;4.90;;;3.67;;
14698;SDS011;7439;50.804;4.602;2023-04-24T14:33:29;6.43;;;3.53;;
14698;SDS011;7439;50.804;4.602;2023-04-24T14:35:57;5.93;;;3.67;;
14698;SDS011;7439;50.804;4.602;2023-04-24T14:38:24;7.63;;;4.13;;
14698;SDS011;7439;50.804;4.602;2023-04-24T14:40:51;8.10;;;3.40;;
14698;SDS011;7439;50.804;4.602;2023-04-24T14:43:22;4.43;;;3.17;;
14698;SDS011;7439;50.804;4.602;2023-04-24T14:45:50;4.73;;;3.27;;
14698;SDS011;7439;50.804;4.602;2023-04-24T14:48:18;7.53;;;3.47;;